sensor_id;sensor_type;location;lat;lon;timestamp;pressure;altitude;pressure_sealevel;temperature;humidity
29907;BME280;16776;50.958;10.994;2023-04-04T00:01:55;99703.28;;;1.57;81.03
29907;BME280;16776;50.958;10.994;2023-04-04T00:04:21;99704.19;;;1.59;81.34
29907;BME280;16776;50.958;10.994;2023-04-04T00:06:48;99703.38;;;1.62;81.51
29907;BME280;16776;50.958;10.994;2023-04-04T00:09:17;99700.88;;;1.63;81.94
29907;BME280;16776;50.958;10.994;2023-04-04T00:11:44;99703.47;;;1.65;81.72
29907;BME280;16776;50.958;10.994;2023-04-04T00:14:11;99694.13;;;1.64;81.37
29907;BME280;16776;50.958;10.994;2023-04-04T00:16:37;99702.53;;;1.61;81.12
29907;BME280;16776;50.958;10.994;2023-04-04T00:19:04;99699.09;;;1.59;81.08
29907;BME280;16776;50.958;10.994;2023-04-04T00:21:30;99692.19;;;1.55;80.50
29907;BME280;16776;50.958;10.994;2023-04-04T00:23:57;99694.69;;;1.52;80.29
29907;BME280;16776;50.958;10.994;2023-04-04T00:26:25;99683.63;;;1.50;80.36
29907;BME280;16776;50.958;10.994;2023-04-04T00:28:54;99691.97;;;1.46;80.92
29907;BME280;16776;50.958;10.994;2023-04-04T00:31:25;99692.00;;;1.48;80.35
29907;BME280;16776;50.958;10.994;2023-04-04T00:33:51;99690.09;;;1.40;80.30
29907;BME280;16776;50.958;10.994;2023-04-04T00:36:18;99690.09;;;1.39;80.11
29907;BME280;16776;50.958;10.994;2023-04-04T00:38:45;99688.41;;;1.39;80.56
29907;BME280;16776;50.958;10.994;2023-04-04T00:41:11;99689.19;;;1.37;80.68
29907;BME280;16776;50.958;10.994;2023-04-04T00:43:39;99685.03;;;1.39;81.03
29907;BME280;16776;50.958;10.994;2023-04-04T00:46:07;99689.94;;;1.34;80.87
29907;BME280;16776;50.958;10.994;2023-04-04T00:48:34;99685.66;;;1.32;80.49
29907;BME280;16776;50.958;10.994;2023-04-04T00:51:00;99684.75;;;1.30;80.32
29907;BME280;16776;50.958;10.994;2023-04-04T00:53:27;99686.44;;;1.29;80.60
29907;BME280;16776;50.958;10.994;2023-04-04T00:55:54;99683.91;;;1.29;81.32
29907;BME280;16776;50.958;10.994;2023-04-04T00:58:20;99676.28;;;1.29;80.59
29907;BME280;16776;50.958;10.994;2023-04-04T01:00:48;99684.00;;;1.32;81.15
29907;BME280;16776;50.958;10.994;2023-04-04T01:03:15;99684.00;;;1.32;80.93
29907;BME280;16776;50.958;10.994;2023-04-04T01:05:42;99676.44;;;1.35;81.66
29907;BME280;16776;50.958;10.994;2023-04-04T01:08:08;99679.06;;;1.38;81.82
29907;BME280;16776;50.958;10.994;2023-04-04T01:10:35;99688.44;;;1.41;81.32
29907;BME280;16776;50.958;10.994;2023-04-04T01:13:02;99673.31;;;1.44;81.33
29907;BME280;16776;50.958;10.994;2023-04-04T01:15:29;99675.91;;;1.47;82.18
29907;BME280;16776;50.958;10.994;2023-04-04T01:17:59;99678.59;;;1.53;81.21
29907;BME280;16776;50.958;10.994;2023-04-04T01:20:28;99662.25;;;1.42;81.70
29907;BME280;16776;50.958;10.994;2023-04-04T01:22:57;99667.72;;;1.57;82.09
29907;BME280;16776;50.958;10.994;2023-04-04T01:25:29;99669.50;;;1.61;82.42
29907;BME280;16776;50.958;10.994;2023-04-04T01:27:57;99667.78;;;1.60;82.56
29907;BME280;16776;50.958;10.994;2023-04-04T01:30:28;99667.94;;;1.65;82.36
29907;BME280;16776;50.958;10.994;2023-04-04T01:33:00;99667.13;;;1.67;81.62
29907;BME280;16776;50.958;10.994;2023-04-04T01:35:32;99667.19;;;1.69;82.46
29907;BME280;16776;50.958;10.994;2023-04-04T01:38:10;99668.97;;;1.73;82.65
29907;BME280;16776;50.958;10.994;2023-04-04T01:40:43;99669.81;;;1.73;81.90
29907;BME280;16776;50.958;10.994;2023-04-04T01:43:13;99663.88;;;1.71;81.89
29907;BME280;16776;50.958;10.994;2023-04-04T01:45:40;99664.72;;;1.72;82.48
29907;BME280;16776;50.958;10.994;2023-04-04T01:48:07;99657.13;;;1.73;82.17
29907;BME280;16776;50.958;10.994;2023-04-04T01:50:35;99657.97;;;1.74;81.94
29907;BME280;16776;50.958;10.994;2023-04-04T01:53:02;99655.44;;;1.74;82.07
29907;BME280;16776;50.958;10.994;2023-04-04T01:55:28;99658.84;;;1.74;81.87
29907;BME280;16776;50.958;10.994;2023-04-04T01:57:56;99653.78;;;1.74;82.35
29907;BME280;16776;50.958;10.994;2023-04-04T02:00:23;99652.88;;;1.72;82.52
29907;BME280;16776;50.958;10.994;2023-04-04T02:02:49;99656.25;;;1.71;82.50
29907;BME280;16776;50.958;10.994;2023-04-04T02:05:16;99656.19;;;1.70;81.81
29907;BME280;16776;50.958;10.994;2023-04-04T02:07:46;99657.06;;;1.70;82.00
29907;BME280;16776;50.958;10.994;2023-04-04T02:10:12;99648.47;;;1.65;81.65
29907;BME280;16776;50.958;10.994;2023-04-04T02:12:39;99650.09;;;1.63;82.10
29907;BME280;16776;50.958;10.994;2023-04-04T02:15:08;99655.19;;;1.63;81.80
29907;BME280;16776;50.958;10.994;2023-04-04T02:17:35;99649.97;;;1.57;81.84
29907;BME280;16776;50.958;10.994;2023-04-04T02:20:02;99655.84;;;1.56;81.85
29907;BME280;16776;50.958;10.994;2023-04-04T02:22:28;99643.94;;;1.54;81.93
29907;BME280;16776;50.958;10.994;2023-04-04T02:24:55;99643.03;;;1.52;82.51
29907;BME280;16776;50.958;10.994;2023-04-04T02:27:22;99637.94;;;1.50;82.89
29907;BME280;16776;50.958;10.994;2023-04-04T02:29:48;99639.56;;;1.48;82.23
29907;BME280;16776;50.958;10.994;2023-04-04T02:32:16;99635.34;;;1.49;82.87
29907;BME280;16776;50.958;10.994;2023-04-04T02:34:43;99636.13;;;1.46;82.77
29907;BME280;16776;50.958;10.994;2023-04-04T02:37:09;99629.34;;;1.45;83.13
29907;BME280;16776;50.958;10.994;2023-04-04T02:39:36;99637.78;;;1.44;83.26
29907;BME280;16776;50.958;10.994;2023-04-04T02:42:03;99632.69;;;1.44;83.38
29907;BME280;16776;50.958;10.994;2023-04-04T02:44:29;99638.59;;;1.43;83.33
29907;BME280;16776;50.958;10.994;2023-04-04T02:46:56;99632.66;;;1.42;83.22
29907;BME280;16776;50.958;10.994;2023-04-04T02:49:24;99630.16;;;1.44;82.92
29907;BME280;16776;50.958;10.994;2023-04-04T02:51:51;99623.31;;;1.41;83.22
29907;BME280;16776;50.958;10.994;2023-04-04T02:54:19;99619.03;;;1.40;83.22
29907;BME280;16776;50.958;10.994;2023-04-04T02:56:47;99623.28;;;1.40;83.23
29907;BME280;16776;50.958;10.994;2023-04-04T02:59:14;99614.78;;;1.38;83.00
29907;BME280;16776;50.958;10.994;2023-04-04T03:01:41;99614.72;;;1.36;82.87
29907;BME280;16776;50.958;10.994;2023-04-04T03:04:07;99612.94;;;1.34;82.51
29907;BME280;16776;50.958;10.994;2023-04-04T03:06:35;99613.84;;;1.36;83.50
29907;BME280;16776;50.958;10.994;2023-04-04T03:09:02;99612.88;;;1.31;82.63
29907;BME280;16776;50.958;10.994;2023-04-04T03:11:29;99615.38;;;1.29;82.81
29907;BME280;16776;50.958;10.994;2023-04-04T03:13:55;99612.78;;;1.28;83.24
29907;BME280;16776;50.958;10.994;2023-04-04T03:16:22;99608.56;;;1.27;83.31
29907;BME280;16776;50.958;10.994;2023-04-04T03:18:49;99603.44;;;1.25;83.33
29907;BME280;16776;50.958;10.994;2023-04-04T03:21:15;99604.25;;;1.24;83.25
29907;BME280;16776;50.958;10.994;2023-04-04T03:23:44;99595.84;;;1.25;83.70
29907;BME280;16776;50.958;10.994;2023-04-04T03:26:10;99594.00;;;1.21;82.73
29907;BME280;16776;50.958;10.994;2023-04-04T03:28:37;99588.78;;;1.15;83.31
29907;BME280;16776;50.958;10.994;2023-04-04T03:31:04;99581.31;;;1.20;83.55
29907;BME280;16776;50.958;10.994;2023-04-04T03:33:31;99588.06;;;1.19;83.46
29907;BME280;16776;50.958;10.994;2023-04-04T03:35:59;99588.88;;;1.18;83.75
29907;BME280;16776;50.958;10.994;2023-04-04T03:38:25;99589.75;;;1.19;83.33
29907;BME280;16776;50.958;10.994;2023-04-04T03:41:01;99588.13;;;1.22;83.09
29907;BME280;16776;50.958;10.994;2023-04-04T03:43:28;99593.91;;;1.17;83.14
29907;BME280;16776;50.958;10.994;2023-04-04T03:45:58;99593.09;;;1.18;83.35
29907;BME280;16776;50.958;10.994;2023-04-04T03:48:25;99591.31;;;1.14;83.59
29907;BME280;16776;50.958;10.994;2023-04-04T03:50:52;99591.31;;;1.14;83.18
29907;BME280;16776;50.958;10.994;2023-04-04T03:53:18;99582.78;;;1.12;83.36
29907;BME280;16776;50.958;10.994;2023-04-04T03:55:45;99581.91;;;1.11;83.42
29907;BME280;16776;50.958;10.994;2023-04-04T03:58:13;99580.25;;;1.12;83.90
29907;BME280;16776;50.958;10.994;2023-04-04T04:00:40;99583.53;;;1.08;83.93
29907;BME280;16776;50.958;10.994;2023-04-04T04:03:06;99587.75;;;1.07;84.04
29907;BME280;16776;50.958;10.994;2023-04-04T04:05:33;99583.47;;;1.06;84.19
29907;BME280;16776;50.958;10.994;2023-04-04T04:07:59;99579.22;;;1.05;83.97
29907;BME280;16776;50.958;10.994;2023-04-04T04:10:26;99580.03;;;1.04;83.96
29907;BME280;16776;50.958;10.994;2023-04-04T04:12:53;99580.03;;;1.04;83.93
29907;BME280;16776;50.958;10.994;2023-04-04T04:15:21;99573.28;;;1.04;84.45
29907;BME280;16776;50.958;10.994;2023-04-04T04:17:47;99582.53;;;1.02;84.51
29907;BME280;16776;50.958;10.994;2023-04-04T04:20:14;99579.13;;;1.02;84.20
29907;BME280;16776;50.958;10.994;2023-04-04T04:22:44;99575.81;;;1.04;84.13
29907;BME280;16776;50.958;10.994;2023-04-04T04:25:11;99578.25;;;1.00;84.22
29907;BME280;16776;50.958;10.994;2023-04-04T04:27:38;99577.38;;;0.99;84.39
29907;BME280;16776;50.958;10.994;2023-04-04T04:30:07;99578.25;;;1.00;84.91
29907;BME280;16776;50.958;10.994;2023-04-04T04:32:35;99585.91;;;1.01;87.23
29907;BME280;16776;50.958;10.994;2023-04-04T04:35:02;99583.75;;;1.17;89.46
29907;BME280;16776;50.958;10.994;2023-04-04T04:37:29;99583.72;;;1.48;91.01
29907;BME280;16776;50.958;10.994;2023-04-04T04:39:56;99587.13;;;1.83;89.13
29907;BME280;16776;50.958;10.994;2023-04-04T04:42:22;99576.72;;;2.10;89.12
29907;BME280;16776;50.958;10.994;2023-04-04T04:44:50;99574.59;;;2.28;88.05
29907;BME280;16776;50.958;10.994;2023-04-04T04:47:16;99570.50;;;2.36;86.64
29907;BME280;16776;50.958;10.994;2023-04-04T04:49:44;99570.63;;;2.41;86.87
29907;BME280;16776;50.958;10.994;2023-04-04T04:52:17;99573.09;;;2.38;86.42
29907;BME280;16776;50.958;10.994;2023-04-04T04:54:44;99578.91;;;2.32;85.12
29907;BME280;16776;50.958;10.994;2023-04-04T04:57:11;99578.72;;;2.24;85.03
29907;BME280;16776;50.958;10.994;2023-04-04T04:59:37;99571.78;;;2.16;85.73
29907;BME280;16776;50.958;10.994;2023-04-04T05:02:05;99577.56;;;2.09;85.33
29907;BME280;16776;50.958;10.994;2023-04-04T05:04:32;99573.13;;;2.00;85.37
29907;BME280;16776;50.958;10.994;2023-04-04T05:07:00;99581.47;;;1.95;85.01
29907;BME280;16776;50.958;10.994;2023-04-04T05:09:26;99582.94;;;1.87;85.34
29907;BME280;16776;50.958;10.994;2023-04-04T05:11:53;99582.81;;;1.80;85.06
29907;BME280;16776;50.958;10.994;2023-04-04T05:14:20;99579.31;;;1.75;85.58
29907;BME280;16776;50.958;10.994;2023-04-04T05:16:46;99584.28;;;1.71;85.26
29907;BME280;16776;50.958;10.994;2023-04-04T05:19:13;99587.56;;;1.67;85.12
29907;BME280;16776;50.958;10.994;2023-04-04T05:21:39;99584.09;;;1.63;85.66
29907;BME280;16776;50.958;10.994;2023-04-04T05:24:08;99587.44;;;1.62;85.59
29907;BME280;16776;50.958;10.994;2023-04-04T05:26:34;99594.06;;;1.56;86.03
29907;BME280;16776;50.958;10.994;2023-04-04T05:29:01;99596.50;;;1.51;85.78
29907;BME280;16776;50.958;10.994;2023-04-04T05:31:27;99602.28;;;1.47;85.83
29907;BME280;16776;50.958;10.994;2023-04-04T05:33:54;99597.94;;;1.41;85.65
29907;BME280;16776;50.958;10.994;2023-04-04T05:36:21;99597.00;;;1.38;85.32
29907;BME280;16776;50.958;10.994;2023-04-04T05:38:47;99598.59;;;1.34;86.00
29907;BME280;16776;50.958;10.994;2023-04-04T05:41:15;99598.56;;;1.33;86.07
29907;BME280;16776;50.958;10.994;2023-04-04T05:43:42;99606.91;;;1.29;85.74
29907;BME280;16776;50.958;10.994;2023-04-04T05:46:08;99611.13;;;1.28;86.21
29907;BME280;16776;50.958;10.994;2023-04-04T05:48:35;99613.63;;;1.27;85.74
29907;BME280;16776;50.958;10.994;2023-04-04T05:51:02;99613.59;;;1.25;85.77
29907;BME280;16776;50.958;10.994;2023-04-04T05:53:28;99608.56;;;1.27;86.79
29907;BME280;16776;50.958;10.994;2023-04-04T05:55:55;99617.84;;;1.26;87.26
29907;BME280;16776;50.958;10.994;2023-04-04T05:58:26;99614.69;;;1.35;87.16
29907;BME280;16776;50.958;10.994;2023-04-04T06:00:52;99612.13;;;1.33;86.85
29907;BME280;16776;50.958;10.994;2023-04-04T06:03:19;99623.34;;;1.43;86.69
29907;BME280;16776;50.958;10.994;2023-04-04T06:05:49;99626.09;;;1.51;86.40
29907;BME280;16776;50.958;10.994;2023-04-04T06:08:16;99624.41;;;1.51;87.29
29907;BME280;16776;50.958;10.994;2023-04-04T06:10:43;99624.47;;;1.54;86.98
29907;BME280;16776;50.958;10.994;2023-04-04T06:13:09;99627.06;;;1.56;86.66
29907;BME280;16776;50.958;10.994;2023-04-04T06:15:37;99628.00;;;1.59;86.89
29907;BME280;16776;50.958;10.994;2023-04-04T06:18:04;99632.22;;;1.59;87.16
29907;BME280;16776;50.958;10.994;2023-04-04T06:20:31;99632.25;;;1.60;86.62
29907;BME280;16776;50.958;10.994;2023-04-04T06:22:57;99627.16;;;1.60;86.72
29907;BME280;16776;50.958;10.994;2023-04-04T06:25:26;99632.34;;;1.63;87.07
29907;BME280;16776;50.958;10.994;2023-04-04T06:27:52;99606.50;;;1.45;86.52
29907;BME280;16776;50.958;10.994;2023-04-04T06:30:19;99638.28;;;1.64;86.16
29907;BME280;16776;50.958;10.994;2023-04-04T06:32:47;99640.88;;;1.65;87.12
29907;BME280;16776;50.958;10.994;2023-04-04T06:35:14;99641.69;;;1.64;87.22
29907;BME280;16776;50.958;10.994;2023-04-04T06:37:41;99643.41;;;1.65;87.20
29907;BME280;16776;50.958;10.994;2023-04-04T06:40:08;99641.69;;;1.66;86.24
29907;BME280;16776;50.958;10.994;2023-04-04T06:42:38;99609.19;;;1.51;86.79
29907;BME280;16776;50.958;10.994;2023-04-04T06:45:05;99629.84;;;1.66;87.18
29907;BME280;16776;50.958;10.994;2023-04-04T06:47:32;99643.47;;;1.68;86.35
29907;BME280;16776;50.958;10.994;2023-04-04T06:50:00;99642.69;;;1.72;87.38
29907;BME280;16776;50.958;10.994;2023-04-04T06:52:26;99638.47;;;1.71;87.36
29907;BME280;16776;50.958;10.994;2023-04-04T06:54:54;99646.19;;;1.76;87.24
29907;BME280;16776;50.958;10.994;2023-04-04T06:57:23;99644.56;;;1.79;86.65
29907;BME280;16776;50.958;10.994;2023-04-04T06:59:50;99647.25;;;1.84;86.66
29907;BME280;16776;50.958;10.994;2023-04-04T07:02:19;99643.91;;;1.87;87.78
29907;BME280;16776;50.958;10.994;2023-04-04T07:04:45;99646.50;;;1.88;87.13
29907;BME280;16776;50.958;10.994;2023-04-04T07:07:13;99650.84;;;1.94;86.88
29907;BME280;16776;50.958;10.994;2023-04-04T07:09:40;99653.44;;;1.95;87.83
29907;BME280;16776;50.958;10.994;2023-04-04T07:12:07;99650.97;;;1.98;87.75
29907;BME280;16776;50.958;10.994;2023-04-04T07:14:33;99650.19;;;2.01;87.19
29907;BME280;16776;50.958;10.994;2023-04-04T07:17:00;99644.34;;;2.05;87.96
29907;BME280;16776;50.958;10.994;2023-04-04T07:19:26;99644.47;;;2.11;87.62
29907;BME280;16776;50.958;10.994;2023-04-04T07:21:53;99644.56;;;2.14;87.55
29907;BME280;16776;50.958;10.994;2023-04-04T07:24:23;99649.72;;;2.17;87.63
29907;BME280;16776;50.958;10.994;2023-04-04T07:26:50;99641.25;;;2.18;87.55
29907;BME280;16776;50.958;10.994;2023-04-04T07:29:17;99643.91;;;2.21;88.06
29907;BME280;16776;50.958;10.994;2023-04-04T07:31:43;99643.94;;;2.22;87.68
29907;BME280;16776;50.958;10.994;2023-04-04T07:34:10;99645.66;;;2.25;87.33
29907;BME280;16776;50.958;10.994;2023-04-04T07:36:36;99649.16;;;2.29;88.01
29907;BME280;16776;50.958;10.994;2023-04-04T07:39:03;99643.31;;;2.33;87.92
29907;BME280;16776;50.958;10.994;2023-04-04T07:41:31;99646.84;;;2.39;88.59
29907;BME280;16776;50.958;10.994;2023-04-04T07:43:58;99640.13;;;2.41;88.17
29907;BME280;16776;50.958;10.994;2023-04-04T07:46:26;99641.06;;;2.46;88.49
29907;BME280;16776;50.958;10.994;2023-04-04T07:48:53;99636.03;;;2.49;88.55
29907;BME280;16776;50.958;10.994;2023-04-04T07:51:19;99642.09;;;2.54;88.38
29907;BME280;16776;50.958;10.994;2023-04-04T07:53:53;99642.16;;;2.57;88.15
29907;BME280;16776;50.958;10.994;2023-04-04T07:56:20;99638.84;;;2.60;88.20
29907;BME280;16776;50.958;10.994;2023-04-04T07:58:48;99633.78;;;2.63;87.83
29907;BME280;16776;50.958;10.994;2023-04-04T08:01:15;99639.69;;;2.62;87.70
29907;BME280;16776;50.958;10.994;2023-04-04T08:03:41;99633.84;;;2.64;87.21
29907;BME280;16776;50.958;10.994;2023-04-04T08:06:08;99634.69;;;2.65;88.50
29907;BME280;16776;50.958;10.994;2023-04-04T08:08:35;99633.06;;;2.69;88.61
29907;BME280;16776;50.958;10.994;2023-04-04T08:11:02;99633.97;;;2.71;87.73
29907;BME280;16776;50.958;10.994;2023-04-04T08:13:28;99643.38;;;2.75;87.55
29907;BME280;16776;50.958;10.994;2023-04-04T08:15:57;99639.25;;;2.80;88.22
29907;BME280;16776;50.958;10.994;2023-04-04T08:18:23;99640.94;;;2.79;87.21
29907;BME280;16776;50.958;10.994;2023-04-04T08:20:53;99635.88;;;2.81;87.84
29907;BME280;16776;50.958;10.994;2023-04-04T08:23:20;99637.56;;;2.82;87.00
29907;BME280;16776;50.958;10.994;2023-04-04T08:25:46;99641.03;;;2.84;86.83
29907;BME280;16776;50.958;10.994;2023-04-04T08:28:13;99638.47;;;2.84;86.88
29907;BME280;16776;50.958;10.994;2023-04-04T08:30:42;99647.09;;;2.90;86.93
29907;BME280;16776;50.958;10.994;2023-04-04T08:33:10;99642.78;;;2.88;87.26
29907;BME280;16776;50.958;10.994;2023-04-04T08:35:37;99649.56;;;2.86;86.69
29907;BME280;16776;50.958;10.994;2023-04-04T08:38:03;99647.84;;;2.85;87.11
29907;BME280;16776;50.958;10.994;2023-04-04T08:40:32;99641.88;;;2.84;86.74
29907;BME280;16776;50.958;10.994;2023-04-04T08:43:00;99652.88;;;2.83;86.58
29907;BME280;16776;50.958;10.994;2023-04-04T08:45:28;99650.28;;;2.82;86.10
29907;BME280;16776;50.958;10.994;2023-04-04T08:47:57;99646.88;;;2.80;86.59
29907;BME280;16776;50.958;10.994;2023-04-04T08:50:26;99646.88;;;2.80;86.87
29907;BME280;16776;50.958;10.994;2023-04-04T08:52:55;99647.72;;;2.79;87.15
29907;BME280;16776;50.958;10.994;2023-04-04T08:55:24;99651.13;;;2.79;86.46
29907;BME280;16776;50.958;10.994;2023-04-04T08:57:51;99646.03;;;2.79;87.44
29907;BME280;16776;50.958;10.994;2023-04-04T09:00:18;99641.81;;;2.81;86.43
29907;BME280;16776;50.958;10.994;2023-04-04T09:02:51;99642.78;;;2.86;86.61
29907;BME280;16776;50.958;10.994;2023-04-04T09:05:21;99642.75;;;2.85;86.09
29907;BME280;16776;50.958;10.994;2023-04-04T09:07:52;99640.28;;;2.89;85.78
29907;BME280;16776;50.958;10.994;2023-04-04T09:10:22;99644.50;;;2.89;86.25
29907;BME280;16776;50.958;10.994;2023-04-04T09:12:49;99650.50;;;2.91;85.05
29907;BME280;16776;50.958;10.994;2023-04-04T09:15:16;99651.31;;;2.90;85.03
29907;BME280;16776;50.958;10.994;2023-04-04T09:17:43;99656.41;;;2.90;85.53
29907;BME280;16776;50.958;10.994;2023-04-04T09:20:38;99648.84;;;2.94;84.16
29907;BME280;16776;50.958;10.994;2023-04-04T09:23:08;99655.53;;;2.89;83.68
29907;BME280;16776;50.958;10.994;2023-04-04T09:25:35;99647.84;;;2.85;84.02
29907;BME280;16776;50.958;10.994;2023-04-04T09:28:03;99647.84;;;2.85;84.15
29907;BME280;16776;50.958;10.994;2023-04-04T09:30:31;99639.38;;;2.86;83.54
29907;BME280;16776;50.958;10.994;2023-04-04T09:33:03;99640.31;;;2.91;84.25
29907;BME280;16776;50.958;10.994;2023-04-04T09:35:32;99646.22;;;2.90;84.15
29907;BME280;16776;50.958;10.994;2023-04-04T09:37:59;99644.56;;;2.90;84.91
29907;BME280;16776;50.958;10.994;2023-04-04T09:40:28;99638.72;;;2.96;84.47
29907;BME280;16776;50.958;10.994;2023-04-04T09:42:59;99621.66;;;2.90;83.93
29907;BME280;16776;50.958;10.994;2023-04-04T09:45:26;99645.63;;;3.01;83.91
29907;BME280;16776;50.958;10.994;2023-04-04T09:47:54;99645.72;;;3.06;83.48
29907;BME280;16776;50.958;10.994;2023-04-04T09:50:22;99646.59;;;3.08;83.82
29907;BME280;16776;50.958;10.994;2023-04-04T09:52:49;99626.97;;;3.02;84.49
29907;BME280;16776;50.958;10.994;2023-04-04T09:55:16;99651.88;;;3.17;84.01
29907;BME280;16776;50.958;10.994;2023-04-04T09:57:45;99652.03;;;3.26;84.20
29907;BME280;16776;50.958;10.994;2023-04-04T10:00:18;99643.72;;;3.33;84.82
29907;BME280;16776;50.958;10.994;2023-04-04T10:02:45;99650.63;;;3.40;85.38
29907;BME280;16776;50.958;10.994;2023-04-04T10:05:13;99649.75;;;3.37;84.14
29907;BME280;16776;50.958;10.994;2023-04-04T10:07:43;99646.41;;;3.41;83.63
29907;BME280;16776;50.958;10.994;2023-04-04T10:10:12;99660.94;;;3.47;84.72
29907;BME280;16776;50.958;10.994;2023-04-04T10:12:45;99652.53;;;3.51;84.33
29907;BME280;16776;50.958;10.994;2023-04-04T10:15:14;99656.81;;;3.53;84.67
29907;BME280;16776;50.958;10.994;2023-04-04T10:17:43;99652.66;;;3.57;84.20
29907;BME280;16776;50.958;10.994;2023-04-04T10:20:12;99648.50;;;3.62;84.28
29907;BME280;16776;50.958;10.994;2023-04-04T10:22:40;99646.03;;;3.68;84.49
29907;BME280;16776;50.958;10.994;2023-04-04T10:25:09;99647.09;;;3.80;84.57
29907;BME280;16776;50.958;10.994;2023-04-04T10:27:45;99642.19;;;3.91;84.67
29907;BME280;16776;50.958;10.994;2023-04-04T10:30:18;99638.16;;;4.05;84.78
29907;BME280;16776;50.958;10.994;2023-04-04T10:32:48;99637.50;;;4.17;84.39
29907;BME280;16776;50.958;10.994;2023-04-04T10:35:16;99641.00;;;4.25;84.86
29907;BME280;16776;50.958;10.994;2023-04-04T10:37:49;99630.97;;;4.36;84.11
29907;BME280;16776;50.958;10.994;2023-04-04T10:40:20;99629.41;;;4.45;84.22
29907;BME280;16776;50.958;10.994;2023-04-04T10:42:48;99623.53;;;4.51;84.00
29907;BME280;16776;50.958;10.994;2023-04-04T10:45:17;99623.63;;;4.57;83.42
29907;BME280;16776;50.958;10.994;2023-04-04T10:47:44;99615.16;;;4.61;83.76
29907;BME280;16776;50.958;10.994;2023-04-04T10:50:11;99616.94;;;4.66;83.80
29907;BME280;16776;50.958;10.994;2023-04-04T10:52:41;99617.06;;;4.76;83.11
29907;BME280;16776;50.958;10.994;2023-04-04T10:55:12;99612.88;;;4.82;82.84
29907;BME280;16776;50.958;10.994;2023-04-04T10:57:41;99610.34;;;4.84;82.69
29907;BME280;16776;50.958;10.994;2023-04-04T11:00:10;99604.41;;;4.86;82.46
29907;BME280;16776;50.958;10.994;2023-04-04T11:02:47;99604.47;;;4.92;81.91
29907;BME280;16776;50.958;10.994;2023-04-04T11:05:18;99595.09;;;4.88;81.16
29907;BME280;16776;50.958;10.994;2023-04-04T11:07:47;99604.47;;;4.89;82.81
29907;BME280;16776;50.958;10.994;2023-04-04T11:10:21;99592.72;;;5.03;82.95
29907;BME280;16776;50.958;10.994;2023-04-04T11:12:51;99588.56;;;5.13;82.63
29907;BME280;16776;50.958;10.994;2023-04-04T11:15:20;99585.28;;;5.22;82.75
29907;BME280;16776;50.958;10.994;2023-04-04T11:17:58;99567.56;;;5.38;83.50
29907;BME280;16776;50.958;10.994;2023-04-04T11:20:32;99576.28;;;5.60;82.60
29907;BME280;16776;50.958;10.994;2023-04-04T11:23:04;99570.47;;;5.79;83.58
29907;BME280;16776;50.958;10.994;2023-04-04T11:25:33;99577.38;;;5.96;82.78
29907;BME280;16776;50.958;10.994;2023-04-04T11:28:04;99570.75;;;6.19;83.86
29907;BME280;16776;50.958;10.994;2023-04-04T11:30:36;99574.25;;;6.41;81.69
29907;BME280;16776;50.958;10.994;2023-04-04T11:33:10;99567.50;;;6.52;80.24
29907;BME280;16776;50.958;10.994;2023-04-04T11:35:39;99573.47;;;6.54;80.93
29907;BME280;16776;50.958;10.994;2023-04-04T11:38:13;99565.81;;;6.60;80.69
29907;BME280;16776;50.958;10.994;2023-04-04T11:40:41;99566.66;;;6.56;80.52
29907;BME280;16776;50.958;10.994;2023-04-04T11:43:10;99569.22;;;6.57;80.98
29907;BME280;16776;50.958;10.994;2023-04-04T11:45:42;99562.41;;;6.59;80.74
29907;BME280;16776;50.958;10.994;2023-04-04T11:48:14;99565.84;;;6.58;80.26
29907;BME280;16776;50.958;10.994;2023-04-04T11:50:44;99564.94;;;6.55;81.66
29907;BME280;16776;50.958;10.994;2023-04-04T11:53:13;99559.78;;;6.46;81.46
29907;BME280;16776;50.958;10.994;2023-04-04T11:55:42;99570.06;;;6.55;80.16
29907;BME280;16776;50.958;10.994;2023-04-04T11:58:12;99568.31;;;6.46;80.16
29907;BME280;16776;50.958;10.994;2023-04-04T12:00:40;99570.88;;;6.43;80.05
29907;BME280;16776;50.958;10.994;2023-04-04T12:03:10;99564.84;;;6.35;79.19
29907;BME280;16776;50.958;10.994;2023-04-04T12:05:38;99561.38;;;6.24;80.26
29907;BME280;16776;50.958;10.994;2023-04-04T12:08:06;99558.78;;;6.18;80.06
29907;BME280;16776;50.958;10.994;2023-04-04T12:10:35;99555.38;;;6.19;80.69
29907;BME280;16776;50.958;10.994;2023-04-04T12:13:05;99554.53;;;6.21;80.63
29907;BME280;16776;50.958;10.994;2023-04-04T12:15:33;99552.00;;;6.20;81.18
29907;BME280;16776;50.958;10.994;2023-04-04T12:18:00;99554.53;;;6.21;80.68
29907;BME280;16776;50.958;10.994;2023-04-04T12:20:28;99549.44;;;6.24;80.61
29907;BME280;16776;50.958;10.994;2023-04-04T12:22:56;99546.03;;;6.24;80.69
29907;BME280;16776;50.958;10.994;2023-04-04T12:25:23;99543.47;;;6.24;80.04
29907;BME280;16776;50.958;10.994;2023-04-04T12:27:53;99543.47;;;6.27;80.48
29907;BME280;16776;50.958;10.994;2023-04-04T12:30:20;99539.19;;;6.21;79.82
29907;BME280;16776;50.958;10.994;2023-04-04T12:32:48;99542.59;;;6.20;80.38
29907;BME280;16776;50.958;10.994;2023-04-04T12:35:18;99533.19;;;6.16;79.20
29907;BME280;16776;50.958;10.994;2023-04-04T12:38:00;99537.47;;;6.20;80.01
29907;BME280;16776;50.958;10.994;2023-04-04T12:40:35;99527.22;;;6.13;79.43
29907;BME280;16776;50.958;10.994;2023-04-04T12:43:03;99530.59;;;6.09;80.23
29907;BME280;16776;50.958;10.994;2023-04-04T12:45:31;99525.50;;;6.12;80.38
29907;BME280;16776;50.958;10.994;2023-04-04T12:48:00;99523.84;;;6.23;81.24
29907;BME280;16776;50.958;10.994;2023-04-04T12:50:27;99523.00;;;6.27;80.99
29907;BME280;16776;50.958;10.994;2023-04-04T12:52:53;99512.81;;;6.32;80.26
29907;BME280;16776;50.958;10.994;2023-04-04T12:55:22;99516.25;;;6.41;80.40
29907;BME280;16776;50.958;10.994;2023-04-04T12:57:49;99506.03;;;6.38;81.04
29907;BME280;16776;50.958;10.994;2023-04-04T13:00:19;99512.03;;;6.49;80.73
29907;BME280;16776;50.958;10.994;2023-04-04T13:02:48;99514.63;;;6.51;80.56
29907;BME280;16776;50.958;10.994;2023-04-04T13:05:17;99505.22;;;6.50;79.74